sensor_id;sensor_type;location;lat;lon;timestamp;pressure;altitude;pressure_sealevel;temperature;humidity
33913;BME280;20200;52.084;5.224;2022-10-31T00:00:25;101945.0;;;12.98;96.54
33913;BME280;20200;52.084;5.224;2022-10-31T00:02:01;101947.0;;;12.98;96.88
33913;BME280;20200;52.084;5.224;2022-10-31T00:03:37;101947.0;;;12.98;96.82
33913;BME280;20200;52.084;5.224;2022-10-31T00:06:50;101940.0;;;12.96;97.11
33913;BME280;20200;52.084;5.224;2022-10-31T00:08:27;101937.0;;;12.94;96.89
33913;BME280;20200;52.084;5.224;2022-10-31T00:10:05;101939.0;;;12.95;96.96
33913;BME280;20200;52.084;5.224;2022-10-31T00:13:18;101942.0;;;12.92;97.25
33913;BME280;20200;52.084;5.224;2022-10-31T00:14:54;101947.0;;;12.92;97.42
33913;BME280;20200;52.084;5.224;2022-10-31T00:16:31;101940.0;;;13.0;97.08
33913;BME280;20200;52.084;5.224;2022-10-31T00:18:09;101947.0;;;13.01;96.37
33913;BME280;20200;52.084;5.224;2022-10-31T00:21:23;101945.0;;;13.15;95.58
33913;BME280;20200;52.084;5.224;2022-10-31T00:23:02;101939.0;;;13.11;95.43
33913;BME280;20200;52.084;5.224;2022-10-31T00:24:38;101943.0;;;13.15;94.97
33913;BME280;20200;52.084;5.224;2022-10-31T00:27:54;101945.0;;;12.96;95.34
33913;BME280;20200;52.084;5.224;2022-10-31T00:29:31;101948.0;;;12.89;95.84
33913;BME280;20200;52.084;5.224;2022-10-31T00:31:09;101955.0;;;12.98;95.59
33913;BME280;20200;52.084;5.224;2022-10-31T00:32:47;101955.0;;;12.86;95.78
33913;BME280;20200;52.084;5.224;2022-10-31T00:36:00;101952.0;;;12.85;95.79
33913;BME280;20200;52.084;5.224;2022-10-31T00:37:37;101948.0;;;12.83;95.63
33913;BME280;20200;52.084;5.224;2022-10-31T00:39:13;101952.0;;;12.76;95.85
33913;BME280;20200;52.084;5.224;2022-10-31T00:42:26;101957.0;;;12.73;95.85
33913;BME280;20200;52.084;5.224;2022-10-31T00:44:04;101947.0;;;12.8;95.5
33913;BME280;20200;52.084;5.224;2022-10-31T00:45:41;101955.0;;;12.81;95.14
33913;BME280;20200;52.084;5.224;2022-10-31T00:48:53;101957.0;;;12.9;94.81
33913;BME280;20200;52.084;5.224;2022-10-31T00:50:29;101963.0;;;13.02;93.89
33913;BME280;20200;52.084;5.224;2022-10-31T00:52:05;101965.0;;;12.92;94.04
33913;BME280;20200;52.084;5.224;2022-10-31T00:53:41;101964.0;;;12.79;95.03
33913;BME280;20200;52.084;5.224;2022-10-31T00:56:54;101963.0;;;12.81;94.72
33913;BME280;20200;52.084;5.224;2022-10-31T00:58:30;101961.0;;;12.72;94.86
33913;BME280;20200;52.084;5.224;2022-10-31T01:00:07;101960.0;;;12.62;95.03
33913;BME280;20200;52.084;5.224;2022-10-31T01:03:21;101960.0;;;12.57;94.97
33913;BME280;20200;52.084;5.224;2022-10-31T01:04:57;101959.0;;;12.71;93.92
33913;BME280;20200;52.084;5.224;2022-10-31T01:06:33;101962.0;;;12.76;93.44
33913;BME280;20200;52.084;5.224;2022-10-31T01:09:46;101968.0;;;12.75;93.03
33913;BME280;20200;52.084;5.224;2022-10-31T01:11:23;101961.0;;;12.68;93.24
33913;BME280;20200;52.084;5.224;2022-10-31T01:12:59;101955.0;;;12.58;93.77
33913;BME280;20200;52.084;5.224;2022-10-31T01:16:14;101946.0;;;12.71;93.19
33913;BME280;20200;52.084;5.224;2022-10-31T01:17:51;101941.0;;;12.56;93.84
33913;BME280;20200;52.084;5.224;2022-10-31T01:19:27;101945.0;;;12.34;94.61
33913;BME280;20200;52.084;5.224;2022-10-31T01:21:07;101942.0;;;12.3;95.15
33913;BME280;20200;52.084;5.224;2022-10-31T01:24:19;101936.0;;;12.42;94.66
33913;BME280;20200;52.084;5.224;2022-10-31T01:26:01;101939.0;;;12.25;94.68
33913;BME280;20200;52.084;5.224;2022-10-31T01:27:43;101937.0;;;12.23;94.45
33913;BME280;20200;52.084;5.224;2022-10-31T01:29:19;101935.0;;;12.28;94.1
33913;BME280;20200;52.084;5.224;2022-10-31T01:32:35;101932.0;;;12.24;94.13
33913;BME280;20200;52.084;5.224;2022-10-31T01:34:14;101928.0;;;12.12;94.47
33913;BME280;20200;52.084;5.224;2022-10-31T01:35:51;101931.0;;;11.9;95.12
33913;BME280;20200;52.084;5.224;2022-10-31T01:39:09;101932.0;;;11.99;94.9
33913;BME280;20200;52.084;5.224;2022-10-31T01:40:46;101927.0;;;12.01;94.72
33913;BME280;20200;52.084;5.224;2022-10-31T01:42:22;101924.0;;;12.02;94.07
33913;BME280;20200;52.084;5.224;2022-10-31T01:44:01;101924.0;;;11.88;95.04
33913;BME280;20200;52.084;5.224;2022-10-31T01:47:17;101930.0;;;11.95;94.72
33913;BME280;20200;52.084;5.224;2022-10-31T01:48:57;101922.0;;;12.03;94.13
33913;BME280;20200;52.084;5.224;2022-10-31T01:50:37;101917.0;;;12.0;93.83
33913;BME280;20200;52.084;5.224;2022-10-31T01:54:02;101923.0;;;11.88;93.96
33913;BME280;20200;52.084;5.224;2022-10-31T01:55:44;101930.0;;;11.86;94.47
33913;BME280;20200;52.084;5.224;2022-10-31T01:57:21;101930.0;;;11.77;94.44
33913;BME280;20200;52.084;5.224;2022-10-31T01:59:00;101927.0;;;11.66;94.9
33913;BME280;20200;52.084;5.224;2022-10-31T02:02:16;101930.0;;;11.58;95.0
33913;BME280;20200;52.084;5.224;2022-10-31T02:03:54;101920.0;;;11.46;95.28
33913;BME280;20200;52.084;5.224;2022-10-31T02:05:32;101923.0;;;11.46;95.35
33913;BME280;20200;52.084;5.224;2022-10-31T02:07:12;101920.0;;;11.51;94.49
33913;BME280;20200;52.084;5.224;2022-10-31T02:10:27;101923.0;;;11.37;95.44
33913;BME280;20200;52.084;5.224;2022-10-31T02:12:09;101922.0;;;11.41;94.95
33913;BME280;20200;52.084;5.224;2022-10-31T02:13:47;101923.0;;;11.29;95.43
33913;BME280;20200;52.084;5.224;2022-10-31T02:15:24;101921.0;;;11.45;94.53
33913;BME280;20200;52.084;5.224;2022-10-31T02:18:36;101921.0;;;11.48;94.2
33913;BME280;20200;52.084;5.224;2022-10-31T02:20:15;101921.0;;;11.45;93.88
33913;BME280;20200;52.084;5.224;2022-10-31T02:21:59;101921.0;;;11.51;93.6
33913;BME280;20200;52.084;5.224;2022-10-31T02:24:00;101917.0;;;11.48;93.62
33913;BME280;20200;52.084;5.224;2022-10-31T02:27:29;101917.0;;;11.37;94.08
33913;BME280;20200;52.084;5.224;2022-10-31T02:30:28;101919.0;;;11.35;94.16
33913;BME280;20200;52.084;5.224;2022-10-31T02:32:15;101922.0;;;11.17;94.31
33913;BME280;20200;52.084;5.224;2022-10-31T02:35:47;101923.0;;;11.16;94.48
33913;BME280;20200;52.084;5.224;2022-10-31T02:37:36;101923.0;;;11.13;94.82
33913;BME280;20200;52.084;5.224;2022-10-31T02:39:24;101928.0;;;11.03;94.99
33913;BME280;20200;52.084;5.224;2022-10-31T02:41:07;101925.0;;;10.98;95.84
33913;BME280;20200;52.084;5.224;2022-10-31T02:42:51;101930.0;;;11.04;95.34
33913;BME280;20200;52.084;5.224;2022-10-31T02:46:23;101931.0;;;11.05;95.15
33913;BME280;20200;52.084;5.224;2022-10-31T02:48:08;101931.0;;;11.14;94.32
33913;BME280;20200;52.084;5.224;2022-10-31T02:49:51;101932.0;;;11.02;94.87
33913;BME280;20200;52.084;5.224;2022-10-31T02:51:32;101933.0;;;11.06;94.36
33913;BME280;20200;52.084;5.224;2022-10-31T02:53:08;101930.0;;;10.82;94.56
33913;BME280;20200;52.084;5.224;2022-10-31T02:56:23;101930.0;;;10.86;94.29
33913;BME280;20200;52.084;5.224;2022-10-31T02:58:04;101931.0;;;10.81;94.89
33913;BME280;20200;52.084;5.224;2022-10-31T02:59:45;101930.0;;;10.9;94.54
33913;BME280;20200;52.084;5.224;2022-10-31T03:01:38;101931.0;;;10.93;94.22
33913;BME280;20200;52.084;5.224;2022-10-31T03:03:56;101935.0;;;10.91;94.44
33913;BME280;20200;52.084;5.224;2022-10-31T03:05:48;101932.0;;;11.06;93.72
33913;BME280;20200;52.084;5.224;2022-10-31T03:09:22;101931.0;;;10.94;93.96
33913;BME280;20200;52.084;5.224;2022-10-31T03:11:02;101931.0;;;11.07;93.38
33913;BME280;20200;52.084;5.224;2022-10-31T03:12:47;101930.0;;;11.08;93.33
33913;BME280;20200;52.084;5.224;2022-10-31T03:14:33;101930.0;;;11.17;92.87
33913;BME280;20200;52.084;5.224;2022-10-31T03:16:17;101933.0;;;11.26;92.54
33913;BME280;20200;52.084;5.224;2022-10-31T03:19:42;101934.0;;;11.11;94.24
33913;BME280;20200;52.084;5.224;2022-10-31T03:21:23;101930.0;;;11.17;94.07
33913;BME280;20200;52.084;5.224;2022-10-31T03:23:06;101934.0;;;11.37;93.31
33913;BME280;20200;52.084;5.224;2022-10-31T03:24:45;101935.0;;;11.31;92.9
33913;BME280;20200;52.084;5.224;2022-10-31T03:28:03;101936.0;;;11.14;94.03
33913;BME280;20200;52.084;5.224;2022-10-31T03:29:44;101927.0;;;11.17;93.84
33913;BME280;20200;52.084;5.224;2022-10-31T03:31:29;101930.0;;;11.18;93.69
33913;BME280;20200;52.084;5.224;2022-10-31T03:33:10;101925.0;;;11.18;93.22
33913;BME280;20200;52.084;5.224;2022-10-31T03:34:51;101928.0;;;11.1;93.73
33913;BME280;20200;52.084;5.224;2022-10-31T03:38:12;101930.0;;;11.13;93.33
33913;BME280;20200;52.084;5.224;2022-10-31T03:39:50;101930.0;;;11.23;93.1
33913;BME280;20200;52.084;5.224;2022-10-31T03:41:32;101932.0;;;11.3;92.75
33913;BME280;20200;52.084;5.224;2022-10-31T03:43:16;101927.0;;;11.3;92.39
33913;BME280;20200;52.084;5.224;2022-10-31T03:46:41;101933.0;;;11.4;92.2
33913;BME280;20200;52.084;5.224;2022-10-31T03:48:20;101930.0;;;11.19;93.52
33913;BME280;20200;52.084;5.224;2022-10-31T03:49:57;101930.0;;;11.28;93.44
33913;BME280;20200;52.084;5.224;2022-10-31T03:51:38;101931.0;;;11.1;94.16
33913;BME280;20200;52.084;5.224;2022-10-31T03:55:06;101930.0;;;11.01;95.12
33913;BME280;20200;52.084;5.224;2022-10-31T03:56:51;101931.0;;;10.91;95.19
33913;BME280;20200;52.084;5.224;2022-10-31T03:58:34;101933.0;;;10.74;95.85
33913;BME280;20200;52.084;5.224;2022-10-31T04:00:13;101931.0;;;11.04;94.66
33913;BME280;20200;52.084;5.224;2022-10-31T04:03:38;101932.0;;;11.21;94.01
33913;BME280;20200;52.084;5.224;2022-10-31T04:05:15;101932.0;;;11.33;93.34
33913;BME280;20200;52.084;5.224;2022-10-31T04:06:54;101936.0;;;11.28;92.76
33913;BME280;20200;52.084;5.224;2022-10-31T04:08:38;101937.0;;;11.12;93.43
33913;BME280;20200;52.084;5.224;2022-10-31T04:11:56;101937.0;;;10.98;93.52
33913;BME280;20200;52.084;5.224;2022-10-31T04:13:37;101937.0;;;11.09;93.07
33913;BME280;20200;52.084;5.224;2022-10-31T04:15:15;101935.0;;;11.17;92.53
33913;BME280;20200;52.084;5.224;2022-10-31T04:16:52;101934.0;;;11.11;92.74
33913;BME280;20200;52.084;5.224;2022-10-31T04:20:06;101936.0;;;11.1;92.83
33913;BME280;20200;52.084;5.224;2022-10-31T04:21:43;101935.0;;;11.08;92.8
33913;BME280;20200;52.084;5.224;2022-10-31T04:23:22;101933.0;;;11.06;93.06
33913;BME280;20200;52.084;5.224;2022-10-31T04:25:00;101931.0;;;11.13;92.88
33913;BME280;20200;52.084;5.224;2022-10-31T04:28:13;101931.0;;;10.82;94.43
33913;BME280;20200;52.084;5.224;2022-10-31T04:29:49;101933.0;;;10.76;94.68
33913;BME280;20200;52.084;5.224;2022-10-31T04:31:25;101930.0;;;10.77;94.34
33913;BME280;20200;52.084;5.224;2022-10-31T04:34:38;101923.0;;;10.87;93.91
33913;BME280;20200;52.084;5.224;2022-10-31T04:36:14;101926.0;;;11.0;93.22
33913;BME280;20200;52.084;5.224;2022-10-31T04:37:50;101930.0;;;10.86;93.41
33913;BME280;20200;52.084;5.224;2022-10-31T04:41:02;101922.0;;;10.96;92.87
33913;BME280;20200;52.084;5.224;2022-10-31T04:42:38;101924.0;;;10.96;92.91
33913;BME280;20200;52.084;5.224;2022-10-31T04:44:15;101920.0;;;10.98;92.58
33913;BME280;20200;52.084;5.224;2022-10-31T04:47:27;101917.0;;;11.02;92.71
33913;BME280;20200;52.084;5.224;2022-10-31T04:49:03;101921.0;;;10.99;92.63
33913;BME280;20200;52.084;5.224;2022-10-31T04:50:39;101920.0;;;10.91;92.73
33913;BME280;20200;52.084;5.224;2022-10-31T04:52:16;101919.0;;;10.87;92.94
33913;BME280;20200;52.084;5.224;2022-10-31T04:55:29;101920.0;;;10.94;93.04
33913;BME280;20200;52.084;5.224;2022-10-31T04:57:06;101925.0;;;10.87;93.2
33913;BME280;20200;52.084;5.224;2022-10-31T04:58:42;101924.0;;;11.0;92.89
33913;BME280;20200;52.084;5.224;2022-10-31T05:01:57;101919.0;;;11.05;93.07
33913;BME280;20200;52.084;5.224;2022-10-31T05:03:34;101925.0;;;11.0;93.16
33913;BME280;20200;52.084;5.224;2022-10-31T05:05:10;101917.0;;;11.06;93.17
33913;BME280;20200;52.084;5.224;2022-10-31T05:08:22;101917.0;;;11.16;92.65
33913;BME280;20200;52.084;5.224;2022-10-31T05:09:58;101919.0;;;11.17;92.57
33913;BME280;20200;52.084;5.224;2022-10-31T05:11:34;101921.0;;;11.18;92.43
33913;BME280;20200;52.084;5.224;2022-10-31T05:13:11;101922.0;;;11.11;92.7
33913;BME280;20200;52.084;5.224;2022-10-31T05:16:23;101920.0;;;11.27;92.1
33913;BME280;20200;52.084;5.224;2022-10-31T05:17:59;101920.0;;;11.21;91.65
33913;BME280;20200;52.084;5.224;2022-10-31T05:19:36;101914.0;;;10.94;93.39
33913;BME280;20200;52.084;5.224;2022-10-31T05:22:51;101918.0;;;10.75;93.61
33913;BME280;20200;52.084;5.224;2022-10-31T05:24:27;101916.0;;;10.64;94.02
33913;BME280;20200;52.084;5.224;2022-10-31T05:26:03;101911.0;;;10.88;93.38
33913;BME280;20200;52.084;5.224;2022-10-31T05:29:17;101909.0;;;10.66;93.6
33913;BME280;20200;52.084;5.224;2022-10-31T05:30:53;101908.0;;;10.48;94.21
33913;BME280;20200;52.084;5.224;2022-10-31T05:32:36;101911.0;;;10.37;94.64
33913;BME280;20200;52.084;5.224;2022-10-31T05:34:12;101911.0;;;10.35;94.17
33913;BME280;20200;52.084;5.224;2022-10-31T05:37:25;101912.0;;;10.21;94.4
33913;BME280;20200;52.084;5.224;2022-10-31T05:39:01;101911.0;;;10.21;94.57
33913;BME280;20200;52.084;5.224;2022-10-31T05:40:38;101907.0;;;10.15;94.7
33913;BME280;20200;52.084;5.224;2022-10-31T05:43:51;101908.0;;;9.99;95.01
33913;BME280;20200;52.084;5.224;2022-10-31T05:45:28;101907.0;;;10.06;94.95
33913;BME280;20200;52.084;5.224;2022-10-31T05:47:05;101908.0;;;10.34;93.74
33913;BME280;20200;52.084;5.224;2022-10-31T05:48:41;101908.0;;;10.11;94.47
33913;BME280;20200;52.084;5.224;2022-10-31T05:51:54;101905.0;;;10.0;94.92
33913;BME280;20200;52.084;5.224;2022-10-31T05:53:30;101906.0;;;10.1;94.53
33913;BME280;20200;52.084;5.224;2022-10-31T05:55:07;101902.0;;;10.09;94.39
33913;BME280;20200;52.084;5.224;2022-10-31T05:58:20;101897.0;;;10.23;93.88
33913;BME280;20200;52.084;5.224;2022-10-31T05:59:56;101893.0;;;10.23;93.78
33913;BME280;20200;52.084;5.224;2022-10-31T06:01:33;101892.0;;;10.27;93.56
33913;BME280;20200;52.084;5.224;2022-10-31T06:04:46;101890.0;;;10.36;93.26
33913;BME280;20200;52.084;5.224;2022-10-31T06:06:22;101893.0;;;10.43;92.92
33913;BME280;20200;52.084;5.224;2022-10-31T06:07:58;101890.0;;;10.26;94.56
33913;BME280;20200;52.084;5.224;2022-10-31T06:11:10;101888.0;;;10.32;95.81
33913;BME280;20200;52.084;5.224;2022-10-31T06:12:47;101888.0;;;10.28;97.97
33913;BME280;20200;52.084;5.224;2022-10-31T06:14:24;101888.0;;;10.32;97.95
33913;BME280;20200;52.084;5.224;2022-10-31T06:16:00;101887.0;;;10.36;98.2
33913;BME280;20200;52.084;5.224;2022-10-31T06:19:12;101890.0;;;10.45;98.4
33913;BME280;20200;52.084;5.224;2022-10-31T06:20:48;101892.0;;;10.44;99.61
33913;BME280;20200;52.084;5.224;2022-10-31T06:22:24;101884.0;;;10.58;99.26
33913;BME280;20200;52.084;5.224;2022-10-31T06:25:39;101891.0;;;10.55;99.5
33913;BME280;20200;52.084;5.224;2022-10-31T06:27:15;101896.0;;;10.62;99.45
33913;BME280;20200;52.084;5.224;2022-10-31T06:28:51;101896.0;;;10.7;99.75
33913;BME280;20200;52.084;5.224;2022-10-31T06:32:04;101895.0;;;10.75;99.41
33913;BME280;20200;52.084;5.224;2022-10-31T06:33:40;101895.0;;;10.82;99.29
33913;BME280;20200;52.084;5.224;2022-10-31T06:35:17;101899.0;;;10.76;100.0
33913;BME280;20200;52.084;5.224;2022-10-31T06:36:53;101906.0;;;10.88;100.0
33913;BME280;20200;52.084;5.224;2022-10-31T06:40:06;101901.0;;;10.84;100.0
33913;BME280;20200;52.084;5.224;2022-10-31T06:41:42;101905.0;;;10.93;100.0
33913;BME280;20200;52.084;5.224;2022-10-31T06:43:19;101906.0;;;10.87;100.0
33913;BME280;20200;52.084;5.224;2022-10-31T06:46:32;101908.0;;;10.91;100.0
33913;BME280;20200;52.084;5.224;2022-10-31T06:48:08;101905.0;;;11.01;100.0
33913;BME280;20200;52.084;5.224;2022-10-31T06:49:44;101901.0;;;11.09;100.0
33913;BME280;20200;52.084;5.224;2022-10-31T06:52:58;101898.0;;;11.2;99.63
33913;BME280;20200;52.084;5.224;2022-10-31T06:54:34;101899.0;;;11.26;98.75
33913;BME280;20200;52.084;5.224;2022-10-31T06:56:11;101906.0;;;11.17;99.46
33913;BME280;20200;52.084;5.224;2022-10-31T06:57:50;101909.0;;;11.24;98.66
33913;BME280;20200;52.084;5.224;2022-10-31T07:01:02;101906.0;;;11.19;99.24
33913;BME280;20200;52.084;5.224;2022-10-31T07:02:38;101909.0;;;11.2;99.71
33913;BME280;20200;52.084;5.224;2022-10-31T07:04:14;101908.0;;;11.09;100.0
33913;BME280;20200;52.084;5.224;2022-10-31T07:07:27;101912.0;;;11.2;100.0
33913;BME280;20200;52.084;5.224;2022-10-31T07:09:04;101909.0;;;11.24;99.75
33913;BME280;20200;52.084;5.224;2022-10-31T07:10:42;101912.0;;;11.22;100.0
33913;BME280;20200;52.084;5.224;2022-10-31T07:13:54;101905.0;;;11.26;100.0
33913;BME280;20200;52.084;5.224;2022-10-31T07:15:34;101902.0;;;11.29;100.0
33913;BME280;20200;52.084;5.224;2022-10-31T07:17:13;101897.0;;;11.33;100.0
33913;BME280;20200;52.084;5.224;2022-10-31T07:18:50;101898.0;;;11.4;100.0
33913;BME280;20200;52.084;5.224;2022-10-31T07:22:03;101899.0;;;11.37;100.0
33913;BME280;20200;52.084;5.224;2022-10-31T07:23:39;101903.0;;;11.47;100.0
33913;BME280;20200;52.084;5.224;2022-10-31T07:25:15;101905.0;;;11.46;100.0
33913;BME280;20200;52.084;5.224;2022-10-31T07:28:28;101914.0;;;11.57;100.0
33913;BME280;20200;52.084;5.224;2022-10-31T07:30:09;101913.0;;;11.43;100.0
33913;BME280;20200;52.084;5.224;2022-10-31T07:31:48;101915.0;;;11.61;100.0
33913;BME280;20200;52.084;5.224;2022-10-31T07:33:26;101911.0;;;11.47;100.0
33913;BME280;20200;52.084;5.224;2022-10-31T07:36:38;101914.0;;;11.49;100.0
33913;BME280;20200;52.084;5.224;2022-10-31T07:38:15;101912.0;;;11.39;100.0
33913;BME280;20200;52.084;5.224;2022-10-31T07:39:51;101913.0;;;11.58;100.0
33913;BME280;20200;52.084;5.224;2022-10-31T07:43:04;101916.0;;;11.59;100.0
33913;BME280;20200;52.084;5.224;2022-10-31T07:44:41;101914.0;;;11.59;100.0
33913;BME280;20200;52.084;5.224;2022-10-31T07:46:17;101916.0;;;11.75;100.0
33913;BME280;20200;52.084;5.224;2022-10-31T07:49:30;101923.0;;;11.75;100.0
33913;BME280;20200;52.084;5.224;2022-10-31T07:51:07;101922.0;;;11.66;100.0
33913;BME280;20200;52.084;5.224;2022-10-31T07:52:43;101920.0;;;11.82;100.0
33913;BME280;20200;52.084;5.224;2022-10-31T07:54:20;101924.0;;;11.8;100.0
33913;BME280;20200;52.084;5.224;2022-10-31T07:57:32;101921.0;;;11.82;100.0
33913;BME280;20200;52.084;5.224;2022-10-31T07:59:08;101927.0;;;11.87;100.0
33913;BME280;20200;52.084;5.224;2022-10-31T08:00:46;101928.0;;;11.75;100.0
33913;BME280;20200;52.084;5.224;2022-10-31T08:04:00;101930.0;;;11.92;100.0
33913;BME280;20200;52.084;5.224;2022-10-31T08:05:36;101930.0;;;11.91;100.0
33913;BME280;20200;52.084;5.224;2022-10-31T08:07:13;101930.0;;;11.95;100.0
33913;BME280;20200;52.084;5.224;2022-10-31T08:10:26;101932.0;;;11.97;100.0
33913;BME280;20200;52.084;5.224;2022-10-31T08:12:03;101931.0;;;12.1;100.0
33913;BME280;20200;52.084;5.224;2022-10-31T08:13:40;101932.0;;;12.15;100.0
33913;BME280;20200;52.084;5.224;2022-10-31T08:15:16;101928.0;;;12.21;100.0
33913;BME280;20200;52.084;5.224;2022-10-31T08:18:29;101937.0;;;12.26;100.0
33913;BME280;20200;52.084;5.224;2022-10-31T08:20:07;101938.0;;;12.36;100.0
33913;BME280;20200;52.084;5.224;2022-10-31T08:21:43;101932.0;;;12.38;100.0
33913;BME280;20200;52.084;5.224;2022-10-31T08:24:56;101930.0;;;12.37;100.0
33913;BME280;20200;52.084;5.224;2022-10-31T08:26:32;101917.0;;;12.53;100.0
33913;BME280;20200;52.084;5.224;2022-10-31T08:28:10;101919.0;;;12.57;100.0
33913;BME280;20200;52.084;5.224;2022-10-31T08:29:47;101928.0;;;12.63;100.0
33913;BME280;20200;52.084;5.224;2022-10-31T08:33:04;101924.0;;;12.76;100.0
33913;BME280;20200;52.084;5.224;2022-10-31T08:34:41;101917.0;;;12.73;100.0
33913;BME280;20200;52.084;5.224;2022-10-31T08:36:17;101924.0;;;12.9;100.0
33913;BME280;20200;52.084;5.224;2022-10-31T08:39:31;101919.0;;;12.93;100.0
33913;BME280;20200;52.084;5.224;2022-10-31T08:41:07;101923.0;;;12.91;100.0
33913;BME280;20200;52.084;5.224;2022-10-31T08:42:43;101931.0;;;12.89;100.0
33913;BME280;20200;52.084;5.224;2022-10-31T08:45:57;101930.0;;;12.88;100.0
33913;BME280;20200;52.084;5.224;2022-10-31T08:47:33;101919.0;;;12.89;100.0
33913;BME280;20200;52.084;5.224;2022-10-31T08:49:09;101914.0;;;12.98;100.0
33913;BME280;20200;52.084;5.224;2022-10-31T08:50:46;101915.0;;;13.04;100.0
33913;BME280;20200;52.084;5.224;2022-10-31T08:54:00;101911.0;;;13.0;100.0
33913;BME280;20200;52.084;5.224;2022-10-31T08:55:37;101909.0;;;13.14;100.0
33913;BME280;20200;52.084;5.224;2022-10-31T08:57:14;101903.0;;;13.24;100.0
33913;BME280;20200;52.084;5.224;2022-10-31T09:00:28;101900.0;;;13.3;99.93
33913;BME280;20200;52.084;5.224;2022-10-31T09:02:05;101899.0;;;13.33;99.92
33913;BME280;20200;52.084;5.224;2022-10-31T09:03:41;101895.0;;;13.37;100.0
33913;BME280;20200;52.084;5.224;2022-10-31T09:06:53;101892.0;;;13.45;100.0
33913;BME280;20200;52.084;5.224;2022-10-31T09:08:30;101892.0;;;13.45;100.0
33913;BME280;20200;52.084;5.224;2022-10-31T09:10:07;101888.0;;;13.54;100.0
33913;BME280;20200;52.084;5.224;2022-10-31T09:11:43;101885.0;;;13.51;100.0
33913;BME280;20200;52.084;5.224;2022-10-31T09:14:57;101883.0;;;13.56;100.0
33913;BME280;20200;52.084;5.224;2022-10-31T09:16:33;101882.0;;;13.63;100.0
33913;BME280;20200;52.084;5.224;2022-10-31T09:18:10;101877.0;;;13.72;100.0
33913;BME280;20200;52.084;5.224;2022-10-31T09:21:22;101870.0;;;13.83;100.0
33913;BME280;20200;52.084;5.224;2022-10-31T09:23:00;101862.0;;;13.86;100.0
33913;BME280;20200;52.084;5.224;2022-10-31T09:24:38;101858.0;;;13.95;100.0
33913;BME280;20200;52.084;5.224;2022-10-31T09:26:14;101858.0;;;13.95;100.0
33913;BME280;20200;52.084;5.224;2022-10-31T09:29:26;101851.0;;;13.99;100.0
33913;BME280;20200;52.084;5.224;2022-10-31T09:31:02;101851.0;;;14.06;100.0
33913;BME280;20200;52.084;5.224;2022-10-31T09:32:38;101851.0;;;14.1;100.0
33913;BME280;20200;52.084;5.224;2022-10-31T09:35:51;101851.0;;;14.26;100.0
33913;BME280;20200;52.084;5.224;2022-10-31T09:37:27;101853.0;;;14.24;100.0
33913;BME280;20200;52.084;5.224;2022-10-31T09:39:03;101853.0;;;14.26;100.0
33913;BME280;20200;52.084;5.224;2022-10-31T09:42:29;101855.0;;;14.32;100.0
33913;BME280;20200;52.084;5.224;2022-10-31T09:44:29;101856.0;;;14.4;100.0
33913;BME280;20200;52.084;5.224;2022-10-31T09:46:17;101851.0;;;14.47;100.0
33913;BME280;20200;52.084;5.224;2022-10-31T09:48:10;101855.0;;;14.57;100.0
33913;BME280;20200;52.084;5.224;2022-10-31T09:50:18;101855.0;;;14.72;100.0
33913;BME280;20200;52.084;5.224;2022-10-31T09:52:00;101852.0;;;14.7;100.0
33913;BME280;20200;52.084;5.224;2022-10-31T09:53:53;101847.0;;;14.65;100.0
33913;BME280;20200;52.084;5.224;2022-10-31T09:55:37;101838.0;;;14.85;100.0
33913;BME280;20200;52.084;5.224;2022-10-31T09:59:02;101836.0;;;14.91;100.0
33913;BME280;20200;52.084;5.224;2022-10-31T10:00:40;101834.0;;;14.93;100.0
33913;BME280;20200;52.084;5.224;2022-10-31T10:02:20;101832.0;;;14.94;99.92
33913;BME280;20200;52.084;5.224;2022-10-31T10:04:05;101833.0;;;14.99;99.92
33913;BME280;20200;52.084;5.224;2022-10-31T10:07:40;101831.0;;;15.04;99.68
33913;BME280;20200;52.084;5.224;2022-10-31T10:09:22;101831.0;;;15.04;99.2
33913;BME280;20200;52.084;5.224;2022-10-31T10:11:13;101827.0;;;15.11;99.31
33913;BME280;20200;52.084;5.224;2022-10-31T10:13:14;101824.0;;;15.15;98.94
33913;BME280;20200;52.084;5.224;2022-10-31T10:15:25;101822.0;;;15.15;97.67
33913;BME280;20200;52.084;5.224;2022-10-31T10:18:11;101816.0;;;15.18;97.84
33913;BME280;20200;52.084;5.224;2022-10-31T10:20:10;101814.0;;;15.23;97.88
33913;BME280;20200;52.084;5.224;2022-10-31T10:21:56;101816.0;;;15.3;97.28
33913;BME280;20200;52.084;5.224;2022-10-31T10:23:51;101815.0;;;15.29;97.27
33913;BME280;20200;52.084;5.224;2022-10-31T10:25:37;101811.0;;;15.37;96.81
33913;BME280;20200;52.084;5.224;2022-10-31T10:27:19;101812.0;;;15.39;96.97
33913;BME280;20200;52.084;5.224;2022-10-31T10:29:03;101809.0;;;15.46;96.81
33913;BME280;20200;52.084;5.224;2022-10-31T10:32:42;101808.0;;;15.46;96.56
33913;BME280;20200;52.084;5.224;2022-10-31T10:34:22;101801.0;;;15.51;96.59
33913;BME280;20200;52.084;5.224;2022-10-31T10:36:05;101802.0;;;15.52;96.71
33913;BME280;20200;52.084;5.224;2022-10-31T10:37:46;101805.0;;;15.59;96.31
33913;BME280;20200;52.084;5.224;2022-10-31T10:41:12;101796.0;;;15.6;95.2
33913;BME280;20200;52.084;5.224;2022-10-31T10:43:28;101801.0;;;15.59;95.69
33913;BME280;20200;52.084;5.224;2022-10-31T10:48:06;101777.0;;;15.77;95.67
33913;BME280;20200;52.084;5.224;2022-10-31T10:51:30;101766.0;;;15.82;95.33
33913;BME280;20200;52.084;5.224;2022-10-31T10:53:34;101752.0;;;15.87;95.58
33913;BME280;20200;52.084;5.224;2022-10-31T10:55:18;101751.0;;;15.92;95.49
33913;BME280;20200;52.084;5.224;2022-10-31T10:57:08;101749.0;;;15.99;95.16
33913;BME280;20200;52.084;5.224;2022-10-31T10:58:50;101746.0;;;15.99;94.9
33913;BME280;20200;52.084;5.224;2022-10-31T11:00:30;101743.0;;;16.09;94.71
33913;BME280;20200;52.084;5.224;2022-10-31T11:04:01;101737.0;;;16.07;94.31
33913;BME280;20200;52.084;5.224;2022-10-31T11:05:41;101736.0;;;16.12;94.07
33913;BME280;20200;52.084;5.224;2022-10-31T11:07:23;101722.0;;;16.21;94.13
33913;BME280;20200;52.084;5.224;2022-10-31T11:09:08;101713.0;;;16.29;94.21
33913;BME280;20200;52.084;5.224;2022-10-31T11:12:33;101706.0;;;16.34;93.85